Time;durP1;ratioP1;P1;durP2;ratioP2;P2;SDS_P1;SDS_P2;PMS_P1;PMS_P2;Temp;Humidity;BMP_temperature;BMP_pressure;BME280_temperature;BME280_humidity;BME280_pressure;Samples;Min_cycle;Max_cycle;Signal;HPM_P1;HPM_P2
2021/07/18 00:02:04;;;;;;;5.70;2.63;;;17.40;99.90;;;;;;5096476;28;20240;-45
2021/07/18 00:04:31;;;;;;;6.13;2.97;;;17.40;99.90;;;;;;5104174;28;20223;-44
2021/07/18 00:06:58;;;;;;;4.43;3.23;;;17.30;99.90;;;;;;5093594;28;20204;-44
2021/07/18 00:09:25;;;;;;;5.97;3.73;;;17.30;99.90;;;;;;5103824;28;20189;-46
2021/07/18 00:11:51;;;;;;;8.17;3.73;;;17.30;99.90;;;;;;5070993;28;20202;-51
2021/07/18 00:14:18;;;;;;;4.57;2.70;;;17.30;99.90;;;;;;5081250;28;20213;-46
2021/07/18 00:16:45;;;;;;;5.87;3.30;;;17.30;99.90;;;;;;5093647;28;20193;-47
2021/07/18 00:19:13;;;;;;;6.43;2.97;;;17.30;99.90;;;;;;5081251;28;20210;-46
2021/07/18 00:21:40;;;;;;;5.70;3.10;;;17.30;99.90;;;;;;5081966;28;20190;-49
2021/07/18 00:24:07;;;;;;;6.73;2.87;;;17.30;99.90;;;;;;5079779;28;21062;-45
2021/07/18 00:26:33;;;;;;;5.10;2.67;;;17.30;99.90;;;;;;5090087;28;20219;-47
2021/07/18 00:29:00;;;;;;;5.47;2.90;;;17.30;99.90;;;;;;5097058;28;20901;-46
2021/07/18 00:31:27;;;;;;;2.73;2.53;;;17.30;99.90;;;;;;5089494;28;20193;-45
2021/07/18 00:33:54;;;;;;;6.83;3.47;;;17.20;99.90;;;;;;5099304;28;20813;-45
2021/07/18 00:36:22;;;;;;;6.73;3.17;;;17.20;99.90;;;;;;5104027;28;20662;-44
2021/07/18 00:38:48;;;;;;;8.30;3.13;;;17.20;99.90;;;;;;5094918;28;20228;-48
2021/07/18 00:41:15;;;;;;;7.27;3.07;;;17.20;99.90;;;;;;5091052;28;20197;-44
2021/07/18 00:43:42;;;;;;;4.37;3.03;;;17.20;99.90;;;;;;5091600;28;20221;-49
2021/07/18 00:46:08;;;;;;;3.60;3.30;;;17.20;99.90;;;;;;5084200;28;20201;-45
2021/07/18 00:48:35;;;;;;;4.80;3.37;;;17.20;99.90;;;;;;5102802;28;20189;-52
2021/07/18 00:51:02;;;;;;;5.57;3.07;;;17.20;99.90;;;;;;5096439;28;20885;-47
2021/07/18 00:53:31;;;;;;;5.57;2.97;;;17.20;99.90;;;;;;5103077;28;20555;-46
2021/07/18 00:55:59;;;;;;;6.73;3.37;;;17.20;99.90;;;;;;5098587;28;20861;-46
2021/07/18 00:58:29;;;;;;;4.30;2.87;;;17.20;99.90;;;;;;5086316;28;20232;-46
2021/07/18 01:00:56;;;;;;;5.90;3.17;;;17.10;99.90;;;;;;5099576;28;20189;-45
2021/07/18 01:03:23;;;;;;;5.60;3.27;;;17.10;99.90;;;;;;5094676;28;20193;-47
2021/07/18 01:05:50;;;;;;;3.27;2.80;;;17.10;99.90;;;;;;5099306;28;20296;-49
2021/07/18 01:08:16;;;;;;;6.90;3.20;;;17.10;99.90;;;;;;5102884;28;20658;-45
2021/07/18 01:10:44;;;;;;;7.37;3.40;;;17.10;99.90;;;;;;5100928;28;20197;-50
2021/07/18 01:13:11;;;;;;;4.87;3.00;;;17.00;99.90;;;;;;5085944;28;20206;-45
2021/07/18 01:15:39;;;;;;;9.30;3.20;;;17.00;99.90;;;;;;5090137;28;20204;-45
2021/07/18 01:18:07;;;;;;;4.63;3.03;;;16.90;99.90;;;;;;5091904;28;20217;-48
2021/07/18 01:20:35;;;;;;;8.33;3.47;;;16.90;99.90;;;;;;5102638;28;20219;-48
2021/07/18 01:23:05;;;;;;;4.60;2.83;;;16.90;99.90;;;;;;5100572;28;20539;-47
2021/07/18 01:25:34;;;;;;;4.83;3.07;;;16.90;99.90;;;;;;5096524;28;20197;-47
2021/07/18 01:28:01;;;;;;;3.97;2.93;;;16.90;99.90;;;;;;5077238;28;20198;-49
2021/07/18 01:30:28;;;;;;;5.73;3.47;;;16.90;99.90;;;;;;5082907;28;20197;-47
2021/07/18 01:32:54;;;;;;;7.17;3.00;;;16.90;99.90;;;;;;5084287;28;20197;-47
2021/07/18 01:35:21;;;;;;;5.90;3.23;;;16.90;99.90;;;;;;5097712;28;20217;-47
2021/07/18 01:37:47;;;;;;;4.23;3.00;;;16.80;99.90;;;;;;5102765;28;20216;-48
2021/07/18 01:40:16;;;;;;;7.73;3.33;;;16.80;99.90;;;;;;5101627;28;20205;-50
2021/07/18 01:42:43;;;;;;;5.90;3.20;;;16.80;99.90;;;;;;5098391;28;20190;-48
2021/07/18 01:45:10;;;;;;;3.27;2.93;;;16.80;99.90;;;;;;5096278;28;20912;-47
2021/07/18 01:47:37;;;;;;;6.17;2.97;;;16.80;99.90;;;;;;5105452;28;20190;-49
2021/07/18 01:50:06;;;;;;;5.40;3.20;;;16.80;99.90;;;;;;5089700;28;20380;-47
2021/07/18 01:52:32;;;;;;;5.13;2.83;;;16.80;99.90;;;;;;5106836;28;20201;-47
2021/07/18 01:54:59;;;;;;;7.07;3.00;;;16.70;99.90;;;;;;5094779;28;20219;-47
2021/07/18 01:57:27;;;;;;;6.13;2.90;;;16.70;99.90;;;;;;5106839;27;20197;-47
2021/07/18 01:59:54;;;;;;;7.80;3.23;;;16.80;99.90;;;;;;5080400;27;20202;-47
2021/07/18 02:02:20;;;;;;;4.53;2.97;;;16.80;99.90;;;;;;5086429;28;20194;-52
2021/07/18 02:04:48;;;;;;;6.83;2.93;;;16.80;99.90;;;;;;5082775;28;20602;-51
2021/07/18 02:07:16;;;;;;;5.87;3.27;;;16.70;99.90;;;;;;5090775;28;20193;-47
2021/07/18 02:09:43;;;;;;;4.07;2.57;;;16.70;99.90;;;;;;5103876;28;20281;-50
2021/07/18 02:12:10;;;;;;;6.03;3.00;;;16.70;99.90;;;;;;5105066;28;20188;-49
2021/07/18 02:14:39;;;;;;;6.90;3.13;;;16.70;99.90;;;;;;5091901;28;20228;-48
2021/07/18 02:17:07;;;;;;;4.73;2.93;;;16.70;99.90;;;;;;5096434;28;20190;-47
2021/07/18 02:19:34;;;;;;;5.83;2.90;;;16.70;99.90;;;;;;5105895;28;20228;-49
2021/07/18 02:22:01;;;;;;;6.67;3.10;;;16.70;99.90;;;;;;5093613;28;20197;-48
2021/07/18 02:24:28;;;;;;;7.17;3.07;;;16.70;99.90;;;;;;5103795;28;20214;-51
2021/07/18 02:26:55;;;;;;;4.60;2.80;;;16.70;99.90;;;;;;5101709;28;20200;-47
2021/07/18 02:29:23;;;;;;;8.77;3.30;;;16.70;99.90;;;;;;5105245;28;20200;-47
2021/07/18 02:31:51;;;;;;;4.97;3.40;;;16.70;99.90;;;;;;5089547;28;20300;-48
2021/07/18 02:34:18;;;;;;;3.80;2.90;;;16.70;99.90;;;;;;5105654;28;20765;-47
2021/07/18 02:36:44;;;;;;;6.90;4.50;;;16.70;99.90;;;;;;5098210;28;20193;-49
2021/07/18 02:39:11;;;;;;;9.63;3.63;;;16.70;99.90;;;;;;5095866;28;20228;-49
2021/07/18 02:41:38;;;;;;;6.20;3.17;;;16.60;99.90;;;;;;5104672;28;20682;-45
2021/07/18 02:44:05;;;;;;;5.50;3.37;;;16.60;99.90;;;;;;5098529;28;20205;-48
2021/07/18 02:46:33;;;;;;;6.07;3.63;;;16.50;99.90;;;;;;5086600;28;20224;-49
2021/07/18 02:49:01;;;;;;;5.33;3.70;;;16.50;99.90;;;;;;5100467;28;20849;-47
2021/07/18 02:51:27;;;;;;;5.37;3.00;;;16.50;99.90;;;;;;5105877;28;20650;-47
2021/07/18 02:53:54;;;;;;;4.27;3.23;;;16.50;99.90;;;;;;5092070;28;20224;-49
2021/07/18 02:56:21;;;;;;;6.33;3.30;;;16.50;99.90;;;;;;5105284;28;20246;-49
2021/07/18 02:58:48;;;;;;;5.87;3.40;;;16.50;99.90;;;;;;5089188;28;20714;-47
2021/07/18 03:01:14;;;;;;;8.00;3.43;;;16.50;99.90;;;;;;5084308;28;20667;-47
2021/07/18 03:03:41;;;;;;;7.43;3.03;;;16.50;99.90;;;;;;5076281;28;20221;-48
2021/07/18 03:06:09;;;;;;;7.50;3.50;;;16.50;99.90;;;;;;5103287;28;20205;-49
2021/07/18 03:08:35;;;;;;;6.40;3.67;;;16.50;99.90;;;;;;5102892;28;20189;-50
2021/07/18 03:11:02;;;;;;;7.37;3.83;;;16.50;99.90;;;;;;5092532;28;20228;-48
2021/07/18 03:13:29;;;;;;;11.60;3.60;;;16.50;99.90;;;;;;5101905;28;20736;-49
2021/07/18 03:15:55;;;;;;;4.70;3.77;;;16.50;99.90;;;;;;5100295;28;20188;-49
2021/07/18 03:18:22;;;;;;;5.37;3.50;;;16.50;99.90;;;;;;5088220;28;20221;-47
2021/07/18 03:20:49;;;;;;;7.23;3.80;;;16.50;99.90;;;;;;5081209;28;20274;-50
2021/07/18 03:23:17;;;;;;;8.87;4.00;;;16.50;99.90;;;;;;5086221;28;20526;-48
2021/07/18 03:25:43;;;;;;;8.80;4.63;;;16.50;99.90;;;;;;5093184;28;20197;-47
2021/07/18 03:28:10;;;;;;;4.17;3.77;;;16.50;99.90;;;;;;5102823;28;20189;-52
2021/07/18 03:30:36;;;;;;;6.80;3.97;;;16.50;99.90;;;;;;5104257;28;20201;-49
2021/07/18 03:33:03;;;;;;;7.53;4.17;;;16.50;99.90;;;;;;5087250;28;20210;-48
2021/07/18 03:35:30;;;;;;;5.90;4.07;;;16.50;99.90;;;;;;5084124;28;20872;-47
2021/07/18 03:37:57;;;;;;;5.87;3.80;;;16.50;99.90;;;;;;5081878;28;20235;-48
2021/07/18 03:40:28;;;;;;;7.97;3.70;;;16.50;99.90;;;;;;5095464;28;20197;-49
2021/07/18 03:42:54;;;;;;;10.73;3.53;;;16.50;99.90;;;;;;5094186;28;20217;-47
2021/07/18 03:45:21;;;;;;;6.17;3.80;;;16.50;99.90;;;;;;5095749;28;20217;-48
2021/07/18 03:47:48;;;;;;;6.80;3.63;;;16.50;99.90;;;;;;5101586;28;20189;-47
2021/07/18 03:50:15;;;;;;;5.83;3.30;;;16.50;99.90;;;;;;5083999;28;20202;-49
2021/07/18 03:52:41;;;;;;;5.60;3.87;;;16.60;99.90;;;;;;5102891;28;20276;-47
2021/07/18 03:55:09;;;;;;;6.13;3.63;;;16.60;99.90;;;;;;5092761;28;21929;-48
2021/07/18 03:57:37;;;;;;;4.93;4.10;;;16.50;99.90;;;;;;5103475;28;20201;-46
2021/07/18 04:00:05;;;;;;;6.77;3.90;;;16.60;99.90;;;;;;5101144;28;20209;-47
2021/07/18 04:02:33;;;;;;;6.97;3.60;;;16.50;99.90;;;;;;5104475;28;20197;-47
2021/07/18 04:04:59;;;;;;;9.77;3.80;;;16.60;99.90;;;;;;5087012;28;20228;-52
2021/07/18 04:07:32;;;;;;;7.07;3.87;;;16.60;99.90;;;;;;5104274;28;20681;-49
2021/07/18 04:09:59;;;;;;;6.87;3.80;;;16.60;99.90;;;;;;5099976;28;20181;-46
2021/07/18 04:12:25;;;;;;;9.00;4.00;;;16.70;99.90;;;;;;5095092;28;20197;-47
2021/07/18 04:14:53;;;;;;;7.10;3.70;;;16.70;99.90;;;;;;5097081;28;20228;-48
2021/07/18 04:17:20;;;;;;;5.03;3.20;;;16.70;99.90;;;;;;5091592;28;20206;-47
2021/07/18 04:19:47;;;;;;;5.03;3.63;;;16.80;99.90;;;;;;5085879;28;20229;-49
2021/07/18 04:22:13;;;;;;;6.70;3.63;;;16.80;99.90;;;;;;5080636;28;20583;-48
2021/07/18 04:24:40;;;;;;;9.57;3.70;;;16.80;99.90;;;;;;5081455;28;20218;-46
2021/07/18 04:27:07;;;;;;;5.90;3.70;;;16.90;99.90;;;;;;5085475;28;20193;-47
2021/07/18 04:29:33;;;;;;;5.00;3.20;;;16.90;99.90;;;;;;5102799;28;20193;-49
2021/07/18 04:32:01;;;;;;;6.20;3.70;;;16.90;99.90;;;;;;5092739;28;20445;-48
2021/07/18 04:34:28;;;;;;;4.67;3.47;;;16.90;99.90;;;;;;5103871;28;20209;-48
2021/07/18 04:36:54;;;;;;;3.93;3.47;;;16.90;99.90;;;;;;5086327;28;20934;-47
2021/07/18 04:39:21;;;;;;;4.27;2.63;;;16.90;99.90;;;;;;5103467;28;20213;-47
2021/07/18 04:41:48;;;;;;;6.73;3.83;;;17.00;99.90;;;;;;5090397;28;20198;-50
2021/07/18 04:44:14;;;;;;;4.33;3.00;;;17.00;99.90;;;;;;5098247;28;20312;-47
2021/07/18 04:46:41;;;;;;;4.17;2.80;;;17.00;99.90;;;;;;5099116;28;20625;-45
2021/07/18 04:49:09;;;;;;;4.50;2.80;;;17.00;99.90;;;;;;5096236;28;20193;-52
2021/07/18 04:51:37;;;;;;;5.10;2.93;;;17.10;99.90;;;;;;5076270;28;20216;-50
2021/07/18 04:54:03;;;;;;;6.80;3.00;;;17.10;99.90;;;;;;5090662;28;20221;-49
2021/07/18 04:56:30;;;;;;;4.97;3.10;;;17.10;99.90;;;;;;5091942;28;20843;-52
2021/07/18 04:58:57;;;;;;;5.07;2.93;;;17.10;99.90;;;;;;5088382;28;20205;-49
2021/07/18 05:01:23;;;;;;;6.53;3.30;;;17.20;99.90;;;;;;5096936;28;20185;-52
2021/07/18 05:03:50;;;;;;;4.60;2.73;;;17.20;99.90;;;;;;5076627;28;20218;-48
2021/07/18 05:06:18;;;;;;;5.20;2.57;;;17.20;99.90;;;;;;5076576;28;20202;-53
2021/07/18 05:08:44;;;;;;;3.00;2.70;;;17.30;99.90;;;;;;5098616;28;20224;-48
2021/07/18 05:11:11;;;;;;;9.53;3.60;;;17.30;99.90;;;;;;5084212;28;20921;-47
2021/07/18 05:13:37;;;;;;;4.77;3.03;;;17.30;99.90;;;;;;5102393;28;20221;-50
2021/07/18 05:16:04;;;;;;;7.43;3.40;;;17.40;99.90;;;;;;5085593;28;20197;-47
2021/07/18 05:18:31;;;;;;;7.20;2.93;;;17.40;99.90;;;;;;5106616;28;20219;-49
2021/07/18 05:20:58;;;;;;;3.83;3.17;;;17.50;99.90;;;;;;5085331;28;20201;-49
2021/07/18 05:23:26;;;;;;;4.87;2.67;;;17.50;99.90;;;;;;5098877;28;20209;-47
2021/07/18 05:25:53;;;;;;;3.57;2.90;;;17.60;99.90;;;;;;5100927;28;20199;-46
2021/07/18 05:28:20;;;;;;;6.07;3.07;;;17.60;99.90;;;;;;5097121;28;20209;-47
2021/07/18 05:30:46;;;;;;;3.40;2.70;;;17.60;99.90;;;;;;5085342;28;20216;-48
2021/07/18 05:33:13;;;;;;;6.00;3.23;;;17.70;99.90;;;;;;5102904;28;20272;-47
2021/07/18 05:35:40;;;;;;;5.00;3.00;;;17.70;99.90;;;;;;5082182;28;20201;-51
2021/07/18 05:38:06;;;;;;;4.87;3.17;;;17.80;99.90;;;;;;5096303;28;20917;-48
2021/07/18 05:40:35;;;;;;;4.73;3.23;;;17.80;99.90;;;;;;5102702;28;20206;-50
2021/07/18 05:43:01;;;;;;;8.27;3.53;;;17.80;99.90;;;;;;5082973;28;20200;-47
2021/07/18 05:45:28;;;;;;;6.13;3.10;;;17.90;99.90;;;;;;5104755;28;20690;-48
2021/07/18 05:47:55;;;;;;;5.97;3.30;;;17.90;99.90;;;;;;5092589;28;20224;-47
2021/07/18 05:50:21;;;;;;;4.43;2.73;;;18.00;99.90;;;;;;5096556;28;20204;-54
2021/07/18 05:52:48;;;;;;;3.80;3.10;;;18.10;99.90;;;;;;5090425;28;20209;-57
2021/07/18 05:55:15;;;;;;;5.83;2.87;;;18.10;99.90;;;;;;5106499;28;20228;-54
2021/07/18 05:57:43;;;;;;;3.30;3.00;;;18.20;99.90;;;;;;5099908;28;20307;-56
2021/07/18 06:00:12;;;;;;;6.13;2.73;;;18.30;99.90;;;;;;5103725;28;20216;-52
2021/07/18 06:02:39;;;;;;;6.37;2.83;;;18.30;99.90;;;;;;5087813;28;20236;-56
2021/07/18 06:05:07;;;;;;;5.37;2.90;;;18.40;99.90;;;;;;5104168;28;20208;-54
2021/07/18 06:07:35;;;;;;;5.57;2.77;;;18.40;99.90;;;;;;5095434;28;20207;-50
2021/07/18 06:10:04;;;;;;;4.77;2.67;;;18.40;99.90;;;;;;5090198;28;20192;-50
2021/07/18 06:12:31;;;;;;;6.57;2.70;;;18.50;99.90;;;;;;5102750;28;20198;-51
2021/07/18 06:14:59;;;;;;;4.60;2.60;;;18.50;99.90;;;;;;5094562;28;20213;-47
2021/07/18 06:17:27;;;;;;;5.33;2.53;;;18.60;99.90;;;;;;5097260;28;20212;-46
2021/07/18 06:19:53;;;;;;;3.47;2.50;;;18.60;99.90;;;;;;5092127;28;20297;-47
2021/07/18 06:22:20;;;;;;;4.97;2.20;;;18.70;99.90;;;;;;5093624;28;20221;-46
2021/07/18 06:24:47;;;;;;;2.70;2.00;;;18.70;99.90;;;;;;5089677;28;20231;-49
2021/07/18 06:27:13;;;;;;;7.00;2.33;;;18.70;99.90;;;;;;5100922;28;20196;-46
2021/07/18 06:29:40;;;;;;;4.07;2.10;;;18.80;99.90;;;;;;5087636;28;20206;-49
2021/07/18 06:32:09;;;;;;;5.03;2.80;;;18.80;99.90;;;;;;5093696;28;20192;-50
2021/07/18 06:34:35;;;;;;;4.20;2.20;;;18.90;99.90;;;;;;5094561;28;22694;-47
2021/07/18 06:37:02;;;;;;;6.43;2.50;;;18.90;99.90;;;;;;5103279;28;20220;-48
2021/07/18 06:39:29;;;;;;;3.63;2.00;;;19.00;99.90;;;;;;5079782;28;20228;-47
2021/07/18 06:41:55;;;;;;;4.70;2.47;;;19.00;99.90;;;;;;5103142;28;20189;-48
2021/07/18 06:44:22;;;;;;;4.20;2.57;;;19.10;99.90;;;;;;5100106;28;20209;-48
2021/07/18 06:46:48;;;;;;;3.73;2.20;;;19.20;99.90;;;;;;5104398;28;20193;-47
2021/07/18 06:49:16;;;;;;;6.27;2.00;;;19.30;99.90;;;;;;5092207;28;20217;-47
2021/07/18 06:51:43;;;;;;;3.27;2.20;;;19.30;99.90;;;;;;5104970;28;20655;-47
2021/07/18 06:54:10;;;;;;;6.27;2.03;;;19.40;99.90;;;;;;5082108;28;20237;-49
2021/07/18 06:56:36;;;;;;;2.87;2.27;;;19.40;99.90;;;;;;5082554;28;20207;-50
2021/07/18 06:59:03;;;;;;;5.13;2.57;;;19.40;99.90;;;;;;5088793;28;20213;-51
2021/07/18 07:01:30;;;;;;;3.40;2.03;;;19.50;99.90;;;;;;5092188;28;20328;-48
2021/07/18 07:03:57;;;;;;;5.17;2.20;;;19.50;99.90;;;;;;5096360;27;20243;-48
2021/07/18 07:06:25;;;;;;;5.27;2.33;;;19.50;99.90;;;;;;5099948;28;20889;-48
2021/07/18 07:08:53;;;;;;;3.70;2.03;;;19.60;99.90;;;;;;5077490;28;20213;-47
2021/07/18 07:11:20;;;;;;;5.03;2.30;;;19.60;99.90;;;;;;5086550;28;20846;-49
2021/07/18 07:13:47;;;;;;;2.50;2.30;;;19.70;99.90;;;;;;5100269;28;20578;-49
2021/07/18 07:16:14;;;;;;;2.80;2.17;;;19.70;99.90;;;;;;5099545;28;20204;-48
2021/07/18 07:18:41;;;;;;;5.73;2.23;;;19.80;99.90;;;;;;5092409;28;20203;-50
2021/07/18 07:21:09;;;;;;;7.47;2.37;;;19.90;99.90;;;;;;5101346;28;20208;-48
2021/07/18 07:23:37;;;;;;;3.37;2.23;;;19.90;99.90;;;;;;5084028;28;20222;-47
2021/07/18 07:26:05;;;;;;;4.73;2.40;;;19.90;99.90;;;;;;5093891;28;20190;-49
2021/07/18 07:28:32;;;;;;;6.07;2.53;;;20.00;99.90;;;;;;5097258;28;20194;-48
2021/07/18 07:30:59;;;;;;;5.17;1.93;;;20.00;99.90;;;;;;5092703;28;20197;-49
2021/07/18 07:33:25;;;;;;;3.10;2.20;;;20.00;99.90;;;;;;5099547;28;20185;-47
2021/07/18 07:35:52;;;;;;;3.10;2.13;;;20.10;99.90;;;;;;5092345;28;20564;-49
2021/07/18 07:38:19;;;;;;;5.90;2.67;;;20.10;99.90;;;;;;5092346;28;20205;-51
2021/07/18 07:40:47;;;;;;;3.97;2.20;;;20.10;99.90;;;;;;5086656;28;20217;-48
2021/07/18 07:43:14;;;;;;;5.80;2.17;;;20.20;99.90;;;;;;5098284;28;20193;-45
2021/07/18 07:45:41;;;;;;;2.37;2.17;;;20.30;99.90;;;;;;5096787;28;20208;-47
2021/07/18 07:48:08;;;;;;;3.80;2.00;;;20.30;99.90;;;;;;5098364;28;20197;-45
2021/07/18 07:50:34;;;;;;;3.33;1.77;;;20.40;99.90;;;;;;5078573;28;21031;-46
2021/07/18 07:53:02;;;;;;;4.30;1.90;;;20.40;99.90;;;;;;5095856;28;20190;-48
2021/07/18 07:55:29;;;;;;;5.57;1.93;;;20.50;99.90;;;;;;5080808;28;20225;-46
2021/07/18 07:57:58;;;;;;;4.47;1.83;;;20.60;99.90;;;;;;5083280;28;20225;-45
2021/07/18 08:00:25;;;;;;;3.80;1.90;;;20.70;99.90;;;;;;5080401;28;20794;-47
2021/07/18 08:02:52;;;;;;;5.30;2.40;;;20.80;99.90;;;;;;5099240;28;20181;-47
2021/07/18 08:05:20;;;;;;;4.60;2.10;;;20.80;99.90;;;;;;5097996;28;20209;-48
2021/07/18 08:07:47;;;;;;;4.43;2.00;;;20.80;99.90;;;;;;5092492;28;20920;-48
2021/07/18 08:10:17;;;;;;;6.27;2.00;;;20.90;99.90;;;;;;5103560;28;20189;-47
2021/07/18 08:12:44;;;;;;;5.73;1.83;;;21.00;99.90;;;;;;5075555;28;20208;-47
2021/07/18 08:15:14;;;;;;;3.63;1.70;;;21.00;99.90;;;;;;5104284;28;20212;-51
2021/07/18 08:17:42;;;;;;;2.43;1.97;;;21.10;99.90;;;;;;5099753;28;20185;-46
2021/07/18 08:20:10;;;;;;;3.60;1.90;;;21.20;99.90;;;;;;5098243;28;20217;-46
2021/07/18 08:22:37;;;;;;;3.23;2.27;;;21.20;99.90;;;;;;5090182;28;20201;-48
2021/07/18 08:25:05;;;;;;;3.50;2.00;;;21.20;99.90;;;;;;5104005;28;20217;-46
2021/07/18 08:27:32;;;;;;;5.87;2.57;;;21.30;99.90;;;;;;5088261;28;20220;-47
2021/07/18 08:29:58;;;;;;;6.17;2.30;;;21.30;99.90;;;;;;5091785;28;20714;-47
2021/07/18 08:32:26;;;;;;;2.77;2.07;;;21.30;99.90;;;;;;5090112;28;20213;-49
2021/07/18 08:34:53;;;;;;;2.90;2.20;;;21.30;99.90;;;;;;5083060;28;20236;-46
2021/07/18 08:37:20;;;;;;;3.30;2.20;;;21.40;99.90;;;;;;5082733;28;20202;-49
2021/07/18 08:39:46;;;;;;;5.40;2.60;;;21.40;99.90;;;;;;5096546;28;20193;-50
2021/07/18 08:42:15;;;;;;;5.10;1.70;;;21.50;99.90;;;;;;5083262;28;20560;-48
2021/07/18 08:44:42;;;;;;;5.13;2.70;;;21.60;99.90;;;;;;5086351;28;20231;-47
2021/07/18 08:47:09;;;;;;;2.70;2.13;;;21.60;99.90;;;;;;5085722;28;20212;-51
2021/07/18 08:49:39;;;;;;;4.90;2.20;;;21.60;99.90;;;;;;5097504;28;20223;-50
2021/07/18 08:52:06;;;;;;;3.07;1.90;;;21.60;99.90;;;;;;5087769;28;20205;-49
2021/07/18 08:54:34;;;;;;;8.57;2.43;;;21.70;99.90;;;;;;5090473;28;20221;-52
2021/07/18 08:57:02;;;;;;;7.20;2.40;;;21.80;99.90;;;;;;5091129;28;20197;-49
2021/07/18 08:59:29;;;;;;;4.83;2.20;;;21.80;99.90;;;;;;5097167;28;20208;-50
2021/07/18 09:01:56;;;;;;;2.23;2.00;;;21.70;99.90;;;;;;5099471;28;20237;-47
2021/07/18 09:04:22;;;;;;;5.28;1.90;;;21.70;99.90;;;;;;5081301;28;20607;-48
2021/07/18 09:06:52;;;;;;;3.50;2.27;;;21.80;99.90;;;;;;5089314;28;20793;-46
2021/07/18 09:09:21;;;;;;;4.10;2.57;;;22.00;99.90;;;;;;5092946;28;20198;-51
2021/07/18 09:11:56;;;;;;;3.88;2.58;;;22.10;99.90;;;;;;5080602;28;20210;-47
2021/07/18 09:14:22;;;;;;;3.57;2.10;;;22.10;99.90;;;;;;5081008;28;20225;-51
2021/07/18 09:16:51;;;;;;;3.03;1.90;;;22.10;99.90;;;;;;5084352;28;20933;-47
2021/07/18 09:19:23;;;;;;;2.97;1.90;;;22.20;99.90;;;;;;5102109;28;20250;-51
2021/07/18 09:22:06;;;;;;;4.15;2.50;;;22.30;99.90;;;;;;5098641;28;20799;-47
2021/07/18 09:24:35;;;;;;;2.78;1.90;;;22.40;99.90;;;;;;5080542;28;20311;-51
2021/07/18 09:27:11;;;;;;;4.53;2.28;;;22.40;99.90;;;;;;5097590;28;20189;-46
2021/07/18 09:29:39;;;;;;;5.88;2.60;;;22.30;99.90;;;;;;5069994;28;20198;-49
2021/07/18 09:32:08;;;;;;;4.07;3.00;;;22.30;99.90;;;;;;5088740;28;20190;-50
2021/07/18 09:34:37;;;;;;;4.80;2.08;;;22.30;99.90;;;;;;5078964;28;20205;-47
2021/07/18 09:37:21;;;;;;;2.67;2.08;;;22.30;99.90;;;;;;5087898;28;20263;-49
2021/07/18 09:39:50;;;;;;;4.28;2.22;;;22.40;99.90;;;;;;5090219;28;20216;-46
2021/07/18 09:42:32;;;;;;;2.70;2.30;;;22.60;99.90;;;;;;5086050;28;20228;-50
2021/07/18 09:45:00;;;;;;;7.47;2.70;;;22.70;99.90;;;;;;5082975;28;20687;-48
2021/07/18 09:47:27;;;;;;;4.15;2.30;;;22.70;99.90;;;;;;5085266;28;20213;-52
2021/07/18 09:49:54;;;;;;;3.45;2.10;;;22.70;99.90;;;;;;5102190;28;20554;-48
2021/07/18 09:52:26;;;;;;;4.68;2.67;;;22.70;99.90;;;;;;5098419;28;20205;-49
2021/07/18 09:54:54;;;;;;;4.32;2.10;;;22.70;99.90;;;;;;5093116;28;20868;-46
2021/07/18 09:57:36;;;;;;;6.05;2.10;;;22.70;99.90;;;;;;5102743;28;20201;-48
2021/07/18 10:00:17;;;;;;;4.55;1.80;;;22.80;99.90;;;;;;5093307;28;20280;-47
2021/07/18 10:02:45;;;;;;;2.97;1.67;;;22.90;99.90;;;;;;5095443;28;20214;-46
2021/07/18 10:05:27;;;;;;;3.03;2.17;;;22.90;99.90;;;;;;5101168;28;20221;-50
2021/07/18 10:08:04;;;;;;;4.85;1.80;;;23.00;99.90;;;;;;5098896;28;20284;-48
2021/07/18 10:10:31;;;;;;;2.55;1.70;;;23.00;99.90;;;;;;5087705;28;20188;-50
2021/07/18 10:12:58;;;;;;;3.58;1.70;;;23.10;99.90;;;;;;5095733;28;20201;-47
2021/07/18 10:15:25;;;;;;;2.20;1.48;;;23.20;99.90;;;;;;5087718;28;20217;-48
2021/07/18 10:17:52;;;;;;;1.40;1.30;;;23.20;99.90;;;;;;5096154;28;20220;-49
2021/07/18 10:20:19;;;;;;;4.50;1.67;;;23.00;99.90;;;;;;5091701;28;20557;-47
2021/07/18 10:22:48;;;;;;;4.85;1.60;;;23.10;99.90;;;;;;5103063;28;20199;-48
2021/07/18 10:25:16;;;;;;;4.55;1.80;;;23.20;99.90;;;;;;5092720;28;20246;-49
2021/07/18 10:28:32;;;;;;;2.75;2.03;;;23.30;99.90;;;;;;5093256;28;20202;-47
2021/07/18 10:31:56;;;;;;;7.40;1.98;;;23.30;99.90;;;;;;5076018;28;20528;-46
2021/07/18 10:34:28;;;;;;;4.07;1.40;;;23.40;99.90;;;;;;5091844;28;20228;-48
2021/07/18 10:36:56;;;;;;;2.95;1.52;;;23.50;99.90;;;;;;5100354;28;20217;-49
2021/07/18 10:39:33;;;;;;;4.93;1.70;;;23.50;99.90;;;;;;5088779;28;20202;-46
2021/07/18 10:42:03;;;;;;;3.05;1.50;;;23.60;99.90;;;;;;5086520;28;20220;-48
2021/07/18 10:44:43;;;;;;;2.92;1.17;;;23.70;99.90;;;;;;5086780;28;20236;-44
2021/07/18 10:47:10;;;;;;;3.97;2.00;;;23.50;99.90;;;;;;5091077;28;20213;-51
2021/07/18 10:49:58;;;;;;;6.22;1.50;;;23.70;99.90;;;;;;5097879;28;20194;-46
2021/07/18 10:52:29;;;;;;;2.25;1.30;;;23.70;99.90;;;;;;5099259;28;20701;-46
2021/07/18 10:54:56;;;;;;;8.98;2.28;;;23.60;99.90;;;;;;5095463;28;20586;-47
2021/07/18 10:57:27;;;;;;;2.85;1.52;;;23.50;99.90;;;;;;5085122;28;20194;-46
2021/07/18 10:59:54;;;;;;;3.75;1.58;;;23.50;99.90;;;;;;5101708;28;20272;-49
2021/07/18 11:02:30;;;;;;;3.75;1.30;;;23.50;99.90;;;;;;5075053;28;20222;-48
2021/07/18 11:04:58;;;;;;;2.83;1.30;;;23.50;99.90;;;;;;5099003;28;20727;-44
2021/07/18 11:07:37;;;;;;;2.55;0.98;;;23.50;99.90;;;;;;5098462;28;20189;-46
2021/07/18 11:10:19;;;;;;;1.67;1.27;;;23.70;99.90;;;;;;5089325;28;20548;-45
2021/07/18 11:12:48;;;;;;;2.75;1.42;;;23.70;99.90;;;;;;5091941;28;20193;-47
2021/07/18 11:15:31;;;;;;;1.40;1.25;;;23.80;99.90;;;;;;5085491;28;20214;-48
2021/07/18 11:18:04;;;;;;;1.27;1.17;;;23.80;99.90;;;;;;5080934;28;20262;-46
2021/07/18 11:20:38;;;;;;;2.50;1.50;;;23.80;99.90;;;;;;5094450;28;20194;-49
2021/07/18 11:23:06;;;;;;;1.20;1.05;;;23.80;99.90;;;;;;5097233;28;20199;-48
2021/07/18 11:25:51;;;;;;;1.15;1.00;;;24.00;99.90;;;;;;5090977;28;20218;-47
2021/07/18 11:28:51;;;;;;;3.25;1.08;;;24.00;99.90;;;;;;5085964;28;20216;-48
2021/07/18 11:31:24;;;;;;;2.55;1.40;;;23.90;99.90;;;;;;5092595;28;20205;-48
2021/07/18 11:33:56;;;;;;;3.05;1.08;;;23.80;99.90;;;;;;5093473;28;20224;-49
2021/07/18 11:36:44;;;;;;;2.33;1.33;;;23.80;99.90;;;;;;5103108;28;20200;-48
2021/07/18 11:39:14;;;;;;;3.53;1.10;;;24.00;99.90;;;;;;5082482;28;20704;-44
2021/07/18 11:41:41;;;;;;;2.88;1.35;;;23.90;99.90;;;;;;5091868;28;20217;-48
2021/07/18 11:44:10;;;;;;;1.70;1.35;;;23.80;99.90;;;;;;5088354;28;20586;-46
2021/07/18 11:46:38;;;;;;;3.60;1.20;;;23.80;99.90;;;;;;5102656;28;20190;-47
2021/07/18 11:49:06;;;;;;;2.75;1.40;;;23.80;99.90;;;;;;5079586;28;20190;-51
2021/07/18 11:51:35;;;;;;;1.17;1.13;;;23.90;99.90;;;;;;5090741;28;20820;-49
2021/07/18 11:54:02;;;;;;;3.17;1.02;;;23.90;99.90;;;;;;5092965;28;20234;-45
2021/07/18 11:56:31;;;;;;;0.95;0.88;;;23.90;99.90;;;;;;5094362;28;20268;-47
2021/07/18 11:59:01;;;;;;;1.55;1.23;;;24.00;99.90;;;;;;5085226;28;20205;-46
2021/07/18 12:01:30;;;;;;;1.52;0.90;;;24.20;99.90;;;;;;5070763;28;20304;-45
2021/07/18 12:03:58;;;;;;;2.58;1.10;;;24.40;99.90;;;;;;5093295;28;20221;-51
2021/07/18 12:06:27;;;;;;;1.60;1.27;;;24.40;99.90;;;;;;5082067;28;20190;-50
2021/07/18 12:08:54;;;;;;;3.72;0.65;;;24.50;99.90;;;;;;5104454;28;20193;-50
2021/07/18 12:11:23;;;;;;;1.52;0.70;;;24.60;99.90;;;;;;5097474;28;20198;-49
2021/07/18 12:13:52;;;;;;;4.38;0.73;;;24.50;99.90;;;;;;5092096;28;20218;-51
2021/07/18 12:16:19;;;;;;;2.08;0.93;;;24.50;99.90;;;;;;5089521;28;20343;-48
2021/07/18 12:18:47;;;;;;;1.65;0.63;;;24.40;99.90;;;;;;5096221;28;20196;-47
2021/07/18 12:21:18;;;;;;;2.58;0.70;;;24.40;99.90;;;;;;5087328;28;20216;-47
2021/07/18 12:23:45;;;;;;;3.70;0.90;;;24.50;99.90;;;;;;5099111;28;20213;-48
2021/07/18 12:26:12;;;;;;;1.88;0.80;;;24.40;99.90;;;;;;5103926;28;20201;-45
2021/07/18 12:28:39;;;;;;;1.10;0.90;;;24.40;99.90;;;;;;5098651;28;20210;-49
2021/07/18 12:31:06;;;;;;;1.42;0.70;;;24.40;99.90;;;;;;5084826;28;20200;-44
2021/07/18 12:33:34;;;;;;;1.73;0.70;;;24.40;99.80;;;;;;5079017;28;20212;-48
2021/07/18 12:36:04;;;;;;;1.65;1.05;;;24.40;99.80;;;;;;5094204;28;20548;-47
2021/07/18 12:38:30;;;;;;;2.03;0.82;;;24.50;99.90;;;;;;5088092;28;20329;-50
2021/07/18 12:41:04;;;;;;;3.67;0.80;;;24.50;99.90;;;;;;5099364;28;20200;-48
2021/07/18 12:43:32;;;;;;;1.77;0.80;;;24.50;99.90;;;;;;5104855;28;20515;-49
2021/07/18 12:45:58;;;;;;;2.25;0.65;;;24.50;99.60;;;;;;5100494;28;20210;-46
2021/07/18 12:48:26;;;;;;;2.05;0.90;;;24.50;99.90;;;;;;5094160;28;20421;-52
2021/07/18 12:50:53;;;;;;;2.80;0.90;;;24.50;99.90;;;;;;5098337;28;20855;-49
2021/07/18 12:53:21;;;;;;;2.00;0.90;;;24.50;99.90;;;;;;5081617;28;20193;-46
2021/07/18 12:55:50;;;;;;;1.33;0.90;;;24.60;99.80;;;;;;5093598;28;20186;-45